Time;durP1;ratioP1;P1;durP2;ratioP2;P2;SDS_P1;SDS_P2;PMS_P1;PMS_P2;Temp;Humidity;BMP_temperature;BMP_pressure;BME280_temperature;BME280_humidity;BME280_pressure;Samples;Min_cycle;Max_cycle;Signal;HPM_P1;HPM_P2
2022/09/23 00:01:32;;;;;;;6.15;4.10;;;;;;;;;;5013993;28;87275;-70
2022/09/23 00:03:59;;;;;;;6.10;3.92;;;;;;;;;;5016906;28;88664;-70
2022/09/23 00:06:27;;;;;;;9.30;3.60;;;;;;;;;;5018328;28;88245;-70
2022/09/23 00:08:53;;;;;;;4.93;3.80;;;;;;;;;;5025720;28;88358;-71
2022/09/23 00:11:24;;;;;;;9.73;4.35;;;;;;;;;;5020384;27;87452;-71
2022/09/23 00:13:50;;;;;;;;;;;;;;;;;;5018663;28;87791;-70
2022/09/23 00:16:21;;;;;;;10.45;4.32;;;;;;;;;;5019034;28;118163;-71
2022/09/23 00:18:50;;;;;;;5.22;3.75;;;;;;;;;;5013960;28;87019;-70
2022/09/23 00:21:17;;;;;;;8.40;4.68;;;;;;;;;;5021352;28;88570;-70
2022/09/23 00:23:43;;;;;;;12.52;5.47;;;;;;;;;;5017114;28;88531;-70
2022/09/23 00:26:11;;;;;;;6.55;4.80;;;;;;;;;;5017709;28;87904;-70
2022/09/23 00:28:37;;;;;;;8.55;5.55;;;;;;;;;;5029815;28;88496;-70
2022/09/23 00:31:05;;;;;;;11.70;5.43;;;;;;;;;;5017220;28;88255;-70
2022/09/23 00:33:31;;;;;;;7.78;5.07;;;;;;;;;;5020059;28;87691;-70
2022/09/23 00:35:59;;;;;;;10.57;5.93;;;;;;;;;;5021432;27;87134;-70
2022/09/23 00:38:25;;;;;;;11.50;5.60;;;;;;;;;;5018800;28;88752;-71
2022/09/23 00:40:51;;;;;;;6.38;5.70;;;;;;;;;;5023580;27;87341;-70
2022/09/23 00:43:18;;;;;;;11.40;6.25;;;;;;;;;;5019318;28;90021;-71
2022/09/23 00:45:46;;;;;;;12.52;5.28;;;;;;;;;;5014000;28;88911;-70
2022/09/23 00:48:16;;;;;;;6.38;5.07;;;;;;;;;;5010713;28;88328;-70
2022/09/23 00:50:44;;;;;;;7.40;4.60;;;;;;;;;;5025333;28;89217;-70
2022/09/23 00:53:12;;;;;;;5.55;4.95;;;;;;;;;;5026196;27;89126;-72
2022/09/23 00:55:41;;;;;;;5.90;5.25;;;;;;;;;;5014728;28;89518;-73
2022/09/23 00:58:09;;;;;;;13.45;4.85;;;;;;;;;;5024741;28;88010;-70
2022/09/23 01:00:36;;;;;;;11.52;4.43;;;;;;;;;;5025926;27;89154;-71
2022/09/23 01:03:03;;;;;;;10.25;4.75;;;;;;;;;;5011688;28;88912;-71
2022/09/23 01:05:30;;;;;;;7.80;5.03;;;;;;;;;;5027603;28;88059;-70
2022/09/23 01:07:57;;;;;;;10.48;4.95;;;;;;;;;;5029416;28;89762;-70
2022/09/23 01:10:23;;;;;;;5.75;4.93;;;;;;;;;;5026023;27;88114;-70
2022/09/23 01:12:53;;;;;;;6.80;5.00;;;;;;;;;;5011930;28;88551;-70
2022/09/23 01:15:27;;;;;;;8.95;5.28;;;;;;;;;;5015434;28;88875;-70
2022/09/23 01:18:13;;;;;;;5.15;4.50;;;;;;;;;;5024363;28;89720;-70
2022/09/23 01:20:58;;;;;;;8.52;4.97;;;;;;;;;;5019451;27;89416;-70
2022/09/23 01:23:27;;;;;;;5.53;4.75;;;;;;;;;;5006570;28;88996;-70
2022/09/23 01:26:22;;;;;;;6.00;4.57;;;;;;;;;;5017215;27;88044;-70
2022/09/23 01:29:11;;;;;;;9.85;5.03;;;;;;;;;;4991901;28;88592;-70
2022/09/23 01:31:42;;;;;;;6.93;4.47;;;;;;;;;;5011944;28;89022;-70
2022/09/23 01:34:11;;;;;;;9.63;4.60;;;;;;;;;;5026040;27;90044;-70
2022/09/23 01:36:47;;;;;;;8.27;4.90;;;;;;;;;;5029513;28;88775;-71
2022/09/23 01:39:23;;;;;;;13.15;4.80;;;;;;;;;;5019597;28;88943;-71
2022/09/23 01:41:52;;;;;;;9.02;4.63;;;;;;;;;;5028972;28;88446;-71
2022/09/23 01:44:19;;;;;;;10.27;4.60;;;;;;;;;;5022364;27;89675;-71
2022/09/23 01:46:53;;;;;;;5.35;4.35;;;;;;;;;;5020331;28;88045;-71
2022/09/23 01:49:24;;;;;;;7.13;4.40;;;;;;;;;;5019940;27;89835;-71
2022/09/23 01:51:54;;;;;;;4.38;3.67;;;;;;;;;;5024008;28;88887;-71
2022/09/23 01:54:20;;;;;;;11.57;4.32;;;;;;;;;;5023461;27;88887;-70
2022/09/23 01:56:50;;;;;;;12.95;4.38;;;;;;;;;;5031293;27;88775;-71
2022/09/23 01:59:46;;;;;;;9.82;4.57;;;;;;;;;;5017013;28;89048;-71
2022/09/23 02:02:14;;;;;;;5.90;3.78;;;;;;;;;;5012373;28;87325;-71
2022/09/23 02:04:50;;;;;;;6.85;4.35;;;;;;;;;;5024059;28;88067;-70
2022/09/23 02:07:19;;;;;;;7.10;4.25;;;;;;;;;;5018068;28;88081;-70
2022/09/23 02:09:47;;;;;;;8.65;3.83;;;;;;;;;;5029431;28;88743;-70
2022/09/23 02:12:16;;;;;;;6.45;4.00;;;;;;;;;;5035197;28;91193;-71
2022/09/23 02:14:51;;;;;;;8.25;4.25;;;;;;;;;;5016586;28;88146;-71
2022/09/23 02:17:23;;;;;;;5.20;3.55;;;;;;;;;;5016219;28;88739;-71
2022/09/23 02:19:53;;;;;;;11.02;4.15;;;;;;;;;;5015922;28;88072;-70
2022/09/23 02:22:39;;;;;;;4.97;3.83;;;;;;;;;;5026367;27;88909;-71
2022/09/23 02:25:06;;;;;;;4.78;3.50;;;;;;;;;;5011480;28;89954;-70
2022/09/23 02:27:39;;;;;;;5.63;3.95;;;;;;;;;;5034133;27;88265;-71
2022/09/23 02:30:10;;;;;;;5.18;3.40;;;;;;;;;;5020924;28;89106;-70
2022/09/23 02:32:48;;;;;;;5.03;4.00;;;;;;;;;;5021940;27;89357;-71
2022/09/23 02:35:14;;;;;;;4.22;3.50;;;;;;;;;;5018852;28;88952;-70
2022/09/23 02:37:42;;;;;;;4.35;3.95;;;;;;;;;;5016929;28;90807;-71
2022/09/23 02:40:13;;;;;;;12.30;4.30;;;;;;;;;;5032271;28;89179;-71
2022/09/23 02:42:48;;;;;;;6.68;4.38;;;;;;;;;;5026041;27;88172;-71
2022/09/23 02:45:15;;;;;;;11.35;4.30;;;;;;;;;;5017417;28;88636;-71
2022/09/23 02:47:43;;;;;;;7.90;4.43;;;;;;;;;;5012982;28;89353;-70
2022/09/23 02:50:09;;;;;;;6.30;4.20;;;;;;;;;;5012768;28;88728;-71
2022/09/23 02:52:37;;;;;;;4.78;4.28;;;;;;;;;;5025878;28;89568;-71
2022/09/23 02:55:05;;;;;;;6.13;4.55;;;;;;;;;;5032678;27;87972;-70
2022/09/23 02:57:31;;;;;;;10.05;4.45;;;;;;;;;;5031186;28;89763;-71
2022/09/23 02:59:57;;;;;;;7.45;4.50;;;;;;;;;;5017054;27;90086;-71
2022/09/23 03:02:34;;;;;;;6.85;4.63;;;;;;;;;;5020390;28;88239;-71
2022/09/23 03:05:17;;;;;;;5.47;4.55;;;;;;;;;;5039348;27;88935;-71
2022/09/23 03:07:55;;;;;;;8.60;5.03;;;;;;;;;;5028394;27;88961;-71
2022/09/23 03:10:21;;;;;;;9.57;5.18;;;;;;;;;;5034851;28;88892;-71
2022/09/23 03:12:56;;;;;;;6.20;5.30;;;;;;;;;;5031386;27;89055;-70
2022/09/23 03:15:35;;;;;;;5.63;5.03;;;;;;;;;;5006281;28;88067;-71
2022/09/23 03:18:08;;;;;;;10.32;5.35;;;;;;;;;;5020405;28;89314;-71
2022/09/23 03:20:53;;;;;;;10.52;5.47;;;;;;;;;;5018889;27;89987;-71
2022/09/23 03:23:25;;;;;;;9.98;5.25;;;;;;;;;;5023828;28;88080;-71
2022/09/23 03:25:53;;;;;;;7.95;4.90;;;;;;;;;;5029666;28;89472;-71
2022/09/23 03:28:21;;;;;;;11.20;5.30;;;;;;;;;;5020693;27;89030;-71
2022/09/23 03:30:51;;;;;;;9.07;5.35;;;;;;;;;;5021651;27;88156;-71
2022/09/23 03:33:20;;;;;;;6.50;4.40;;;;;;;;;;5020937;28;89769;-71
2022/09/23 03:38:42;;;;;;;6.50;4.53;;;;;;;;;;5012403;28;89807;-71
2022/09/23 03:41:09;;;;;;;10.10;4.77;;;;;;;;;;5030250;27;88951;-71
2022/09/23 03:43:36;;;;;;;8.13;4.70;;;;;;;;;;5019002;28;87816;-71
2022/09/23 03:46:05;;;;;;;6.03;4.80;;;;;;;;;;5023869;27;88383;-71
2022/09/23 03:48:32;;;;;;;6.43;4.68;;;;;;;;;;5026865;28;90139;-71
2022/09/23 03:51:00;;;;;;;7.07;4.72;;;;;;;;;;5024417;28;89192;-71
2022/09/23 03:53:26;;;;;;;6.93;5.20;;;;;;;;;;5036840;28;90462;-71
2022/09/23 03:55:53;;;;;;;10.82;4.95;;;;;;;;;;5037280;27;89013;-70
2022/09/23 03:58:19;;;;;;;6.72;4.50;;;;;;;;;;5036395;27;89832;-71
2022/09/23 04:00:45;;;;;;;11.07;5.13;;;;;;;;;;5033296;27;90078;-71
2022/09/23 04:03:12;;;;;;;6.35;4.47;;;;;;;;;;5036254;27;88068;-71
2022/09/23 04:05:38;;;;;;;10.10;4.45;;;;;;;;;;5034277;28;88745;-71
2022/09/23 04:08:04;;;;;;;7.68;4.60;;;;;;;;;;5034410;27;89333;-71
2022/09/23 04:10:30;;;;;;;10.68;4.50;;;;;;;;;;5035585;27;89067;-71
2022/09/23 04:12:57;;;;;;;5.25;4.57;;;;;;;;;;5028075;27;89849;-70
2022/09/23 04:15:23;;;;;;;8.40;5.10;;;;;;;;;;5033103;28;89744;-71
2022/09/23 04:17:49;;;;;;;9.13;5.18;;;;;;;;;;5018997;28;88376;-71
2022/09/23 04:20:16;;;;;;;9.45;5.38;;;;;;;;;;5038052;27;90094;-71
2022/09/23 04:22:42;;;;;;;9.23;4.97;;;;;;;;;;5035564;27;87989;-71
2022/09/23 04:25:08;;;;;;;15.02;6.07;;;;;;;;;;5021012;27;89257;-71
2022/09/23 04:27:35;;;;;;;7.03;5.03;;;;;;;;;;5024371;28;89011;-71
2022/09/23 04:30:04;;;;;;;7.00;5.50;;;;;;;;;;5026782;28;89347;-70
2022/09/23 04:32:30;;;;;;;9.70;5.57;;;;;;;;;;5015431;28;88778;-71
2022/09/23 04:34:56;;;;;;;11.35;6.45;;;;;;;;;;5016148;28;89868;-71
2022/09/23 04:37:23;;;;;;;15.55;7.78;;;;;;;;;;5015563;28;87985;-71
2022/09/23 04:39:49;;;;;;;10.80;6.63;;;;;;;;;;5017860;28;88749;-72
2022/09/23 04:42:15;;;;;;;10.93;7.07;;;;;;;;;;5021113;28;88228;-71
2022/09/23 04:44:41;;;;;;;9.68;7.90;;;;;;;;;;5016420;28;89893;-70
2022/09/23 04:47:08;;;;;;;11.43;8.32;;;;;;;;;;5022423;28;90029;-70
2022/09/23 04:49:34;;;;;;;11.43;7.68;;;;;;;;;;5014193;28;88156;-71
2022/09/23 04:52:01;;;;;;;18.10;8.45;;;;;;;;;;5025177;28;89680;-71
2022/09/23 04:54:28;;;;;;;10.70;7.32;;;;;;;;;;5021936;28;89275;-70
2022/09/23 04:56:54;;;;;;;9.27;7.75;;;;;;;;;;5029968;27;87831;-71
2022/09/23 04:59:21;;;;;;;11.32;8.70;;;;;;;;;;5018857;28;88049;-70
2022/09/23 05:01:47;;;;;;;15.80;8.23;;;;;;;;;;5029764;28;89516;-71
2022/09/23 05:04:13;;;;;;;13.23;8.13;;;;;;;;;;5026842;28;88691;-71
2022/09/23 05:06:42;;;;;;;13.38;8.77;;;;;;;;;;5023586;28;90025;-70
2022/09/23 05:09:09;;;;;;;10.77;8.65;;;;;;;;;;5017949;28;88576;-71
2022/09/23 05:11:35;;;;;;;13.70;9.95;;;;;;;;;;5039117;28;89930;-70
2022/09/23 05:14:01;;;;;;;15.35;9.05;;;;;;;;;;5022498;27;90160;-71
2022/09/23 05:16:28;;;;;;;22.00;9.48;;;;;;;;;;5024750;28;88024;-70
2022/09/23 05:18:54;;;;;;;15.68;9.98;;;;;;;;;;5025783;27;90166;-70
2022/09/23 05:21:21;;;;;;;14.82;10.27;;;;;;;;;;5023799;28;89180;-71
2022/09/23 05:23:50;;;;;;;12.75;8.88;;;;;;;;;;5023571;28;89475;-71
2022/09/23 05:26:16;;;;;;;19.38;9.23;;;;;;;;;;5038276;27;89040;-71
2022/09/23 05:28:43;;;;;;;13.10;9.13;;;;;;;;;;5027733;27;88794;-71
2022/09/23 05:31:14;;;;;;;15.98;8.60;;;;;;;;;;5012707;27;89495;-71
2022/09/23 05:33:50;;;;;;;17.75;9.07;;;;;;;;;;5019161;27;89841;-71
2022/09/23 05:36:18;;;;;;;12.98;10.02;;;;;;;;;;5017344;28;89029;-71
2022/09/23 05:38:44;;;;;;;13.18;10.00;;;;;;;;;;5016228;28;89631;-71
2022/09/23 05:41:12;;;;;;;15.10;9.68;;;;;;;;;;5032975;28;90107;-71
2022/09/23 05:43:38;;;;;;;15.25;10.95;;;;;;;;;;5020627;28;89993;-71
2022/09/23 05:46:06;;;;;;;13.10;10.68;;;;;;;;;;5025407;28;89277;-71
2022/09/23 05:48:34;;;;;;;15.05;10.13;;;;;;;;;;5028609;28;90143;-72
2022/09/23 05:51:01;;;;;;;12.45;9.45;;;;;;;;;;5037033;27;90788;-72
2022/09/23 05:53:28;;;;;;;18.15;9.63;;;;;;;;;;5030429;27;90734;-71
2022/09/23 05:55:55;;;;;;;11.18;8.85;;;;;;;;;;5025277;27;89377;-71
2022/09/23 05:58:22;;;;;;;14.63;9.82;;;;;;;;;;5022336;28;89692;-73
2022/09/23 06:00:49;;;;;;;15.60;9.98;;;;;;;;;;5019199;28;90119;-71
2022/09/23 06:03:16;;;;;;;24.90;9.75;;;;;;;;;;5016764;28;89067;-70
2022/09/23 06:05:43;;;;;;;16.15;10.98;;;;;;;;;;5026556;28;89893;-72
2022/09/23 06:08:09;;;;;;;16.65;10.02;;;;;;;;;;5014034;28;90565;-70
2022/09/23 06:10:36;;;;;;;22.38;11.57;;;;;;;;;;5020757;27;89918;-71
2022/09/23 06:13:02;;;;;;;17.50;11.60;;;;;;;;;;5016840;28;89996;-71
2022/09/23 06:15:29;;;;;;;25.60;11.10;;;;;;;;;;5020881;28;90067;-71
2022/09/23 06:17:55;;;;;;;41.45;13.18;;;;;;;;;;5038614;27;90795;-71
2022/09/23 06:20:21;;;;;;;33.17;13.45;;;;;;;;;;5038729;27;89197;-71
2022/09/23 06:22:48;;;;;;;26.02;12.57;;;;;;;;;;5038912;27;90032;-71
2022/09/23 06:25:21;;;;;;;19.83;12.43;;;;;;;;;;5038410;27;89709;-71
2022/09/23 06:27:53;;;;;;;18.27;11.80;;;;;;;;;;5023266;27;88975;-71
2022/09/23 06:30:20;;;;;;;18.58;12.10;;;;;;;;;;5019590;28;90685;-71
2022/09/23 06:32:47;;;;;;;18.88;13.52;;;;;;;;;;5028155;28;89500;-71
2022/09/23 06:35:13;;;;;;;28.17;13.45;;;;;;;;;;5038325;27;89949;-71
2022/09/23 06:37:52;;;;;;;25.50;12.52;;;;;;;;;;5027516;27;89646;-71
2022/09/23 06:40:19;;;;;;;18.52;11.75;;;;;;;;;;5017877;28;90192;-71
2022/09/23 06:42:45;;;;;;;22.88;12.25;;;;;;;;;;5015951;28;90238;-71
2022/09/23 06:45:17;;;;;;;18.63;11.93;;;;;;;;;;5017644;28;89195;-71
2022/09/23 06:47:43;;;;;;;16.45;11.60;;;;;;;;;;5018403;28;90091;-70
2022/09/23 06:50:11;;;;;;;17.23;12.02;;;;;;;;;;5021345;28;91154;-71
2022/09/23 06:52:37;;;;;;;14.27;11.52;;;;;;;;;;5018132;28;89040;-72
2022/09/23 06:55:04;;;;;;;19.52;11.65;;;;;;;;;;5018362;28;90032;-71
2022/09/23 06:57:31;;;;;;;21.00;11.88;;;;;;;;;;5017193;28;89524;-71
2022/09/23 06:59:58;;;;;;;19.95;12.18;;;;;;;;;;5000476;28;88987;-70
2022/09/23 07:02:25;;;;;;;17.92;12.75;;;;;;;;;;5009328;28;90006;-71
2022/09/23 07:04:51;;;;;;;26.67;11.65;;;;;;;;;;5016343;28;89578;-70
2022/09/23 07:07:18;;;;;;;22.58;12.55;;;;;;;;;;5017516;28;89672;-72
2022/09/23 07:09:44;;;;;;;23.13;11.95;;;;;;;;;;5022862;28;91191;-71
2022/09/23 07:12:11;;;;;;;20.35;12.23;;;;;;;;;;5020882;28;90674;-72
2022/09/23 07:14:37;;;;;;;26.00;12.25;;;;;;;;;;5017240;28;90020;-72
2022/09/23 07:17:03;;;;;;;18.35;12.18;;;;;;;;;;5018204;28;90598;-71
2022/09/23 07:19:29;;;;;;;20.65;11.52;;;;;;;;;;5020079;27;88952;-72
2022/09/23 07:21:56;;;;;;;16.33;11.68;;;;;;;;;;5037566;27;90360;-72
2022/09/23 07:24:22;;;;;;;22.60;11.05;;;;;;;;;;5035828;27;90152;-72
2022/09/23 07:26:48;;;;;;;19.17;11.23;;;;;;;;;;5023234;27;88997;-72
2022/09/23 07:29:14;;;;;;;19.80;12.18;;;;;;;;;;5026269;28;91311;-71
2022/09/23 07:31:41;;;;;;;16.40;10.35;;;;;;;;;;5015056;28;89512;-72
2022/09/23 07:34:10;;;;;;;29.80;11.50;;;;;;;;;;5018624;27;90150;-72
2022/09/23 07:36:39;;;;;;;17.48;11.13;;;;;;;;;;5017192;28;89588;-72
2022/09/23 07:39:07;;;;;;;15.57;11.02;;;;;;;;;;5027028;28;90438;-70
2022/09/23 07:41:33;;;;;;;16.17;10.68;;;;;;;;;;5037557;27;89901;-70
2022/09/23 07:44:00;;;;;;;17.55;10.98;;;;;;;;;;5034567;27;90089;-70
2022/09/23 07:46:27;;;;;;;11.25;10.07;;;;;;;;;;5025458;27;92216;-70
2022/09/23 07:48:53;;;;;;;19.42;11.50;;;;;;;;;;5017581;28;90733;-71
2022/09/23 07:51:24;;;;;;;15.00;10.93;;;;;;;;;;5033114;27;90541;-74
2022/09/23 07:53:51;;;;;;;17.83;11.38;;;;;;;;;;5017457;27;89156;-71
2022/09/23 07:56:18;;;;;;;19.95;10.85;;;;;;;;;;5016265;28;89944;-70
2022/09/23 07:58:59;;;;;;;17.38;10.75;;;;;;;;;;5027608;28;90047;-71
2022/09/23 08:01:36;;;;;;;18.67;10.65;;;;;;;;;;5037730;28;91423;-71
2022/09/23 08:04:04;;;;;;;17.55;10.65;;;;;;;;;;5036964;27;89211;-70
2022/09/23 08:06:30;;;;;;;16.15;10.90;;;;;;;;;;5034043;27;89993;-70
2022/09/23 08:08:58;;;;;;;24.63;10.77;;;;;;;;;;5037265;27;90026;-70
2022/09/23 08:11:25;;;;;;;19.55;11.40;;;;;;;;;;5037197;27;89625;-70
2022/09/23 08:13:52;;;;;;;18.00;10.48;;;;;;;;;;5033021;28;89199;-71
2022/09/23 08:16:19;;;;;;;17.40;10.02;;;;;;;;;;5024792;27;91213;-70
2022/09/23 08:18:45;;;;;;;14.70;9.60;;;;;;;;;;5036561;27;89056;-71
2022/09/23 08:21:17;;;;;;;13.95;10.25;;;;;;;;;;5037786;27;90956;-72
2022/09/23 08:23:43;;;;;;;16.52;10.82;;;;;;;;;;5034955;27;89452;-69
2022/09/23 08:26:10;;;;;;;18.55;10.18;;;;;;;;;;5034106;27;90707;-70
2022/09/23 08:28:46;;;;;;;11.85;9.60;;;;;;;;;;5037234;27;91164;-71
2022/09/23 08:31:13;;;;;;;16.77;9.90;;;;;;;;;;5025283;27;89817;-71
2022/09/23 08:33:39;;;;;;;11.05;8.75;;;;;;;;;;5014027;28;90133;-71
2022/09/23 08:36:06;;;;;;;13.27;8.63;;;;;;;;;;5031613;28;87996;-71
2022/09/23 08:38:32;;;;;;;11.18;9.18;;;;;;;;;;5031620;27;89818;-71
2022/09/23 08:41:22;;;;;;;11.65;8.80;;;;;;;;;;5026811;27;87975;-69
2022/09/23 08:43:50;;;;;;;18.00;8.50;;;;;;;;;;5022896;27;89824;-73
2022/09/23 08:46:20;;;;;;;19.10;9.15;;;;;;;;;;5017296;28;89314;-69
2022/09/23 08:48:47;;;;;;;17.52;10.30;;;;;;;;;;5015706;28;88044;-72
2022/09/23 08:51:16;;;;;;;16.73;9.68;;;;;;;;;;5016464;28;90589;-73
2022/09/23 08:53:44;;;;;;;13.32;10.30;;;;;;;;;;5013113;28;89032;-72
2022/09/23 08:56:12;;;;;;;16.20;9.80;;;;;;;;;;5014760;28;88970;-70
2022/09/23 08:58:42;;;;;;;20.33;9.18;;;;;;;;;;5018566;28;88765;-69
2022/09/23 09:01:08;;;;;;;15.80;9.18;;;;;;;;;;5022747;27;88924;-69
2022/09/23 09:03:46;;;;;;;14.90;9.00;;;;;;;;;;5017777;28;87450;-70
2022/09/23 09:06:16;;;;;;;16.20;8.00;;;;;;;;;;5011836;27;89079;-69
2022/09/23 09:08:44;;;;;;;16.27;8.10;;;;;;;;;;5019358;28;88331;-68
2022/09/23 09:11:12;;;;;;;16.58;8.18;;;;;;;;;;5017423;28;88793;-69
2022/09/23 09:14:00;;;;;;;13.73;8.40;;;;;;;;;;5017043;28;89027;-68
2022/09/23 09:16:45;;;;;;;17.17;8.32;;;;;;;;;;5017069;28;88036;-69
2022/09/23 09:19:29;;;;;;;12.77;9.10;;;;;;;;;;5010489;28;88846;-68
2022/09/23 09:21:55;;;;;;;13.95;8.30;;;;;;;;;;5034127;28;89087;-68
2022/09/23 09:24:30;;;;;;;9.90;7.93;;;;;;;;;;5026549;27;88188;-69
2022/09/23 09:26:56;;;;;;;20.80;8.00;;;;;;;;;;5017070;27;90004;-69
2022/09/23 09:29:25;;;;;;;12.48;7.47;;;;;;;;;;5017921;28;89028;-69
2022/09/23 09:32:12;;;;;;;13.40;8.27;;;;;;;;;;5011289;28;89114;-71
2022/09/23 09:35:05;;;;;;;17.80;8.50;;;;;;;;;;5011990;28;89889;-69
2022/09/23 09:37:45;;;;;;;15.50;8.90;;;;;;;;;;4979921;28;89633;-69
2022/09/23 09:40:12;;;;;;;10.38;8.57;;;;;;;;;;4996728;28;89645;-70
2022/09/23 09:42:39;;;;;;;12.60;7.90;;;;;;;;;;5001081;28;89276;-68
2022/09/23 09:45:25;;;;;;;14.82;7.43;;;;;;;;;;5036702;28;87961;-69
2022/09/23 09:48:12;;;;;;;9.55;7.35;;;;;;;;;;5020524;28;88881;-67
2022/09/23 09:50:43;;;;;;;15.20;7.10;;;;;;;;;;5017508;28;88848;-68
2022/09/23 09:53:19;;;;;;;11.57;7.53;;;;;;;;;;5023192;28;89792;-70
2022/09/23 09:55:47;;;;;;;14.02;7.32;;;;;;;;;;5028925;27;88244;-69
2022/09/23 09:58:15;;;;;;;17.60;7.80;;;;;;;;;;5018912;28;88062;-67
2022/09/23 10:00:43;;;;;;;23.17;7.93;;;;;;;;;;5020059;28;89853;-68
2022/09/23 10:03:12;;;;;;;9.75;6.47;;;;;;;;;;5019528;28;89738;-67
2022/09/23 10:05:44;;;;;;;9.07;6.43;;;;;;;;;;5020055;28;87996;-67
2022/09/23 10:08:25;;;;;;;14.15;6.97;;;;;;;;;;5021308;28;88778;-67
2022/09/23 10:10:58;;;;;;;12.57;6.82;;;;;;;;;;5039442;28;89143;-69
2022/09/23 10:13:26;;;;;;;12.10;7.25;;;;;;;;;;5040220;27;89888;-70
2022/09/23 10:15:55;;;;;;;11.32;6.53;;;;;;;;;;5028637;27;89960;-73
2022/09/23 10:18:26;;;;;;;17.90;7.10;;;;;;;;;;5020015;28;88920;-69
2022/09/23 10:20:58;;;;;;;10.52;7.43;;;;;;;;;;5018020;28;88754;-69
2022/09/23 10:23:26;;;;;;;13.55;7.28;;;;;;;;;;5018960;28;90181;-68
2022/09/23 10:26:04;;;;;;;8.63;6.80;;;;;;;;;;5012160;28;89605;-69
2022/09/23 10:28:42;;;;;;;10.70;6.72;;;;;;;;;;5032124;28;89411;-70
2022/09/23 10:31:11;;;;;;;13.15;7.38;;;;;;;;;;5037257;27;90114;-70
2022/09/23 10:33:45;;;;;;;10.82;7.25;;;;;;;;;;5021173;27;87889;-68
2022/09/23 10:36:13;;;;;;;8.07;6.57;;;;;;;;;;5016676;28;88068;-71
2022/09/23 10:38:39;;;;;;;7.97;6.47;;;;;;;;;;5018921;28;89161;-68
2022/09/23 10:46:59;;;;;;;12.35;7.43;;;;;;;;;;5019857;28;87868;-68
2022/09/23 10:49:38;;;;;;;14.05;7.50;;;;;;;;;;5019112;28;89481;-69
2022/09/23 10:52:07;;;;;;;11.40;6.22;;;;;;;;;;5018469;28;88889;-70
2022/09/23 10:54:36;;;;;;;10.35;6.30;;;;;;;;;;5041821;27;88764;-71
2022/09/23 10:57:36;;;;;;;9.23;6.25;;;;;;;;;;5039279;27;89038;-73
2022/09/23 11:00:02;;;;;;;12.43;6.45;;;;;;;;;;5028840;27;88895;-70
2022/09/23 11:02:28;;;;;;;14.05;6.88;;;;;;;;;;5016031;28;89780;-68
2022/09/23 11:05:14;;;;;;;11.57;6.47;;;;;;;;;;5023960;28;89570;-70
2022/09/23 11:08:09;;;;;;;12.20;6.10;;;;;;;;;;5018238;28;89099;-71
2022/09/23 11:10:54;;;;;;;6.53;5.82;;;;;;;;;;5011650;28;88855;-68
2022/09/23 11:13:37;;;;;;;11.13;6.57;;;;;;;;;;5033144;28;88400;-71
2022/09/23 11:16:21;;;;;;;10.45;6.57;;;;;;;;;;5025896;27;87961;-72
2022/09/23 11:18:48;;;;;;;14.57;6.82;;;;;;;;;;5021836;28;88800;-70
2022/09/23 11:21:42;;;;;;;10.30;6.93;;;;;;;;;;5016299;28;89098;-69
2022/09/23 11:24:11;;;;;;;11.48;7.05;;;;;;;;;;5001862;28;89504;-69
2022/09/23 11:26:51;;;;;;;12.60;6.22;;;;;;;;;;5018946;28;89915;-69
2022/09/23 11:29:41;;;;;;;7.80;6.43;;;;;;;;;;5019194;28;88649;-70
2022/09/23 11:32:07;;;;;;;6.30;5.50;;;;;;;;;;5022719;28;89805;-70
2022/09/23 11:34:52;;;;;;;7.80;5.28;;;;;;;;;;5022719;27;91229;-70
2022/09/23 11:37:24;;;;;;;7.90;5.63;;;;;;;;;;5000286;28;88436;-69
2022/09/23 11:39:56;;;;;;;7.32;5.25;;;;;;;;;;5018519;28;89070;-69
2022/09/23 11:42:24;;;;;;;9.93;5.80;;;;;;;;;;5024101;28;88080;-69
2022/09/23 11:45:17;;;;;;;14.57;5.47;;;;;;;;;;5030849;28;89776;-69
2022/09/23 11:47:47;;;;;;;9.75;5.72;;;;;;;;;;5013204;28;90797;-70
2022/09/23 11:50:19;;;;;;;9.55;5.07;;;;;;;;;;5028559;28;88949;-69
2022/09/23 11:52:52;;;;;;;8.35;4.80;;;;;;;;;;5011800;28;88795;-69
2022/09/23 11:55:21;;;;;;;12.50;4.68;;;;;;;;;;4998598;28;89990;-69
2022/09/23 11:57:52;;;;;;;6.63;4.60;;;;;;;;;;5005935;28;88829;-69
2022/09/23 12:00:19;;;;;;;;;;;;;;;;;;5018337;28;88752;-69
2022/09/23 12:03:04;;;;;;;10.82;4.28;;;;;;;;;;5010605;28;118337;-68
2022/09/23 12:05:34;;;;;;;9.75;3.83;;;;;;;;;;5019430;27;89098;-69
2022/09/23 12:08:16;;;;;;;7.95;4.50;;;;;;;;;;5037993;27;89009;-70
2022/09/23 12:11:00;;;;;;;5.68;3.65;;;;;;;;;;5012506;27;88082;-70
2022/09/23 12:13:29;;;;;;;10.48;4.07;;;;;;;;;;5012601;28;88774;-70
2022/09/23 12:16:14;;;;;;;7.07;3.47;;;;;;;;;;5028570;27;89944;-70
2022/09/23 12:18:52;;;;;;;10.38;3.90;;;;;;;;;;5037944;27;88052;-70
2022/09/23 12:21:19;;;;;;;8.80;4.10;;;;;;;;;;5037928;27;89212;-70
2022/09/23 12:24:20;;;;;;;4.85;3.70;;;;;;;;;;5030760;27;88614;-70
2022/09/23 14:53:49;;;;;;;11.27;6.75;;;;;;;;;;5013051;28;86617;-69
2022/09/23 14:56:17;;;;;;;12.98;6.97;;;;;;;;;;5000509;28;87024;-69
2022/09/23 14:58:43;;;;;;;10.30;7.20;;;;;;;;;;5013646;28;87001;-69
2022/09/23 15:01:24;;;;;;;22.65;7.20;;;;;;;;;;5005127;28;88090;-70
2022/09/23 15:03:51;;;;;;;12.45;6.88;;;;;;;;;;4995350;28;86698;-68
2022/09/23 15:06:18;;;;;;;11.68;7.25;;;;;;;;;;4996543;28;88868;-69
2022/09/23 15:08:44;;;;;;;13.45;8.70;;;;;;;;;;5011828;28;87460;-70
2022/09/23 15:11:11;;;;;;;13.43;8.25;;;;;;;;;;5015470;28;88971;-70
2022/09/23 15:13:39;;;;;;;19.42;8.05;;;;;;;;;;5000066;28;88418;-70
2022/09/23 15:16:05;;;;;;;14.02;7.80;;;;;;;;;;5009115;28;89044;-69
2022/09/23 15:18:33;;;;;;;13.02;8.07;;;;;;;;;;5012955;28;87472;-69
2022/09/23 15:21:01;;;;;;;13.52;7.55;;;;;;;;;;5003152;28;88651;-69
2022/09/23 15:23:39;;;;;;;16.08;8.40;;;;;;;;;;4994840;28;87882;-69
2022/09/23 15:26:08;;;;;;;17.77;7.47;;;;;;;;;;5001214;28;88691;-69
2022/09/23 15:28:34;;;;;;;13.23;7.40;;;;;;;;;;5010539;28;87566;-69
2022/09/23 15:31:01;;;;;;;12.95;7.05;;;;;;;;;;5013711;28;87831;-69
2022/09/23 15:33:28;;;;;;;13.57;6.88;;;;;;;;;;5014716;28;87264;-69
2022/09/23 15:35:55;;;;;;;13.98;7.68;;;;;;;;;;5016910;28;87467;-69
2022/09/23 15:38:21;;;;;;;17.77;7.28;;;;;;;;;;5015014;28;88734;-69
2022/09/23 15:40:47;;;;;;;11.75;6.95;;;;;;;;;;5015090;28;88460;-69
2022/09/23 15:43:22;;;;;;;13.60;7.28;;;;;;;;;;5006171;28;87953;-69
2022/09/23 15:45:53;;;;;;;14.55;7.00;;;;;;;;;;5015125;28;88403;-69
2022/09/23 15:48:21;;;;;;;12.48;7.97;;;;;;;;;;5000088;28;88052;-72
2022/09/23 15:50:51;;;;;;;19.40;8.57;;;;;;;;;;5010038;28;88025;-69
2022/09/23 15:53:21;;;;;;;19.97;9.33;;;;;;;;;;5003386;28;87443;-68
2022/09/23 15:55:50;;;;;;;;;;;;;;;;;;5015356;28;88508;-66
2022/09/23 15:58:17;;;;;;;21.10;8.60;;;;;;;;;;5003118;28;117186;-67
2022/09/23 16:00:43;;;;;;;22.95;9.48;;;;;;;;;;5008430;28;87464;-65
2022/09/23 16:03:14;;;;;;;23.40;9.90;;;;;;;;;;5012021;28;87977;-65
2022/09/23 16:05:40;;;;;;;;;;;;;;;;;;5000358;28;88376;-65
2022/09/23 16:08:08;;;;;;;20.27;8.93;;;;;;;;;;4995530;28;118124;-65
2022/09/23 16:10:35;;;;;;;16.10;8.45;;;;;;;;;;4989034;28;86830;-66
2022/09/23 16:13:02;;;;;;;17.27;9.10;;;;;;;;;;4997687;28;87341;-65
2022/09/23 16:15:30;;;;;;;11.35;7.53;;;;;;;;;;5001972;28;87471;-67
2022/09/23 16:17:57;;;;;;;12.52;7.55;;;;;;;;;;5003869;28;87863;-69
2022/09/23 16:20:25;;;;;;;17.35;10.80;;;;;;;;;;5002289;28;87312;-68
2022/09/23 16:22:57;;;;;;;23.65;8.68;;;;;;;;;;4998085;28;88941;-68
2022/09/23 16:25:26;;;;;;;19.55;9.10;;;;;;;;;;4999433;28;88286;-68
2022/09/23 16:27:56;;;;;;;13.50;9.73;;;;;;;;;;4990075;28;88469;-68
2022/09/23 16:30:23;;;;;;;20.48;10.95;;;;;;;;;;5000941;28;87822;-68
2022/09/23 16:32:53;;;;;;;23.38;12.70;;;;;;;;;;4992679;28;89889;-68
2022/09/23 16:35:20;;;;;;;24.20;11.98;;;;;;;;;;4999025;28;88902;-69
2022/09/23 16:37:46;;;;;;;17.25;10.98;;;;;;;;;;4983320;28;90013;-68
2022/09/23 16:40:19;;;;;;;29.65;10.32;;;;;;;;;;4998865;28;89496;-69
2022/09/23 16:42:46;;;;;;;21.70;13.27;;;;;;;;;;5001363;28;88897;-68
2022/09/23 16:45:15;;;;;;;23.20;13.82;;;;;;;;;;4985153;28;90576;-68
2022/09/23 16:47:45;;;;;;;16.23;10.95;;;;;;;;;;4985450;28;88980;-69
2022/09/23 16:50:12;;;;;;;16.35;10.15;;;;;;;;;;4996672;28;89833;-68
2022/09/23 16:52:39;;;;;;;20.73;10.45;;;;;;;;;;4998564;28;90517;-69
2022/09/23 16:55:07;;;;;;;19.70;10.82;;;;;;;;;;4993980;28;88904;-69
2022/09/23 16:57:35;;;;;;;18.20;11.40;;;;;;;;;;4997185;28;89890;-69
2022/09/23 17:05:34;;;;;;;32.20;11.63;;;;;;;;;;4987862;28;89155;-69
2022/09/23 17:08:00;;;;;;;21.70;11.60;;;;;;;;;;4981073;28;88989;-69
2022/09/23 17:10:26;;;;;;;22.02;12.40;;;;;;;;;;4989999;28;91215;-68
2022/09/23 17:12:53;;;;;;;23.80;12.02;;;;;;;;;;4998462;28;89549;-68
2022/09/23 17:15:20;;;;;;;24.30;12.88;;;;;;;;;;4986118;28;89105;-73
2022/09/23 17:17:46;;;;;;;26.67;12.30;;;;;;;;;;4999044;28;91121;-71
2022/09/23 17:20:13;;;;;;;20.83;12.70;;;;;;;;;;4998549;28;90593;-70
2022/09/23 17:22:40;;;;;;;22.10;12.77;;;;;;;;;;4991554;28;89176;-70
2022/09/23 17:25:07;;;;;;;27.75;13.82;;;;;;;;;;4981370;28;89916;-69
2022/09/23 17:27:34;;;;;;;24.70;15.23;;;;;;;;;;4978695;28;88903;-72
2022/09/23 17:30:01;;;;;;;23.20;14.77;;;;;;;;;;4993819;28;90123;-68